Time;durP1;ratioP1;P1;durP2;ratioP2;P2;SDS_P1;SDS_P2;PMS_P1;PMS_P2;Temp;Humidity;BMP_temperature;BMP_pressure;BME280_temperature;BME280_humidity;BME280_pressure;Samples;Min_cycle;Max_cycle;Signal;HPM_P1;HPM_P2
2022/04/02 00:00:59;;;;;;;18.50;14.27;;;1.00;99.90;;;;;;4953937;28;20187;-74
2022/04/02 00:03:24;;;;;;;21.50;16.40;;;1.00;99.90;;;;;;4955526;28;20218;-75
2022/04/02 00:05:50;;;;;;;23.43;16.23;;;1.00;99.90;;;;;;4956132;29;20181;-74
2022/04/02 00:08:16;;;;;;;20.10;15.30;;;1.00;99.90;;;;;;4955792;28;20177;-74
2022/04/02 00:10:41;;;;;;;19.97;15.37;;;1.10;99.90;;;;;;4955785;28;20182;-73
2022/04/02 00:13:07;;;;;;;22.00;16.67;;;1.10;99.90;;;;;;4955739;28;20562;-75
2022/04/02 00:15:33;;;;;;;18.87;14.87;;;1.00;99.90;;;;;;4955805;28;20197;-75
2022/04/02 00:17:58;;;;;;;21.20;16.43;;;1.00;99.90;;;;;;4955738;28;20179;-74
2022/04/02 00:20:24;;;;;;;19.73;15.97;;;1.10;99.90;;;;;;4955688;28;20228;-74
2022/04/02 00:25:34;;;;;;;18.93;14.93;;;1.10;99.90;;;;;;4956057;29;20241;-74
2022/04/02 00:28:00;;;;;;;18.30;14.20;;;1.00;99.90;;;;;;4955508;28;20392;-75
2022/04/02 00:30:25;;;;;;;25.90;18.57;;;1.10;99.90;;;;;;4955496;28;20183;-74
2022/04/02 00:32:51;;;;;;;22.17;15.20;;;1.10;99.90;;;;;;4953940;28;20228;-74
2022/04/02 00:35:16;;;;;;;26.20;17.53;;;1.00;99.90;;;;;;4955427;29;20626;-75
2022/04/02 00:37:42;;;;;;;23.77;15.90;;;1.00;99.90;;;;;;4955483;28;20212;-74
2022/04/02 00:40:09;;;;;;;16.80;14.63;;;1.10;99.90;;;;;;4955229;28;20209;-75
2022/04/02 00:42:34;;;;;;;21.57;15.53;;;1.00;99.90;;;;;;4955165;28;20595;-75
2022/04/02 00:45:00;;;;;;;19.93;15.77;;;1.00;99.90;;;;;;4955179;28;20389;-74
2022/04/02 00:47:26;;;;;;;21.23;16.23;;;1.00;99.90;;;;;;4955350;29;20185;-75
2022/04/02 00:49:53;;;;;;;23.37;17.73;;;1.10;99.90;;;;;;4955309;28;20628;-75
2022/04/02 00:52:19;;;;;;;24.93;17.03;;;1.10;99.90;;;;;;4954508;28;20199;-74
2022/04/02 00:54:47;;;;;;;23.63;16.20;;;1.10;99.90;;;;;;4955423;28;20971;-74
2022/04/02 00:57:12;;;;;;;22.97;17.53;;;1.00;99.90;;;;;;4954885;28;20440;-74
2022/04/02 00:59:38;;;;;;;19.23;15.17;;;1.00;99.90;;;;;;4957304;28;20969;-74
2022/04/02 02:32:41;;;;;;;14.00;11.07;;;1.20;99.90;;;;;;5141155;23;20469;-74
2022/04/02 02:38:08;;;;;;;15.23;10.80;;;1.20;99.90;;;;;;4991774;28;20184;-74
2022/04/02 02:40:35;;;;;;;16.20;10.80;;;1.10;99.90;;;;;;4959250;28;20514;-72
2022/04/02 02:43:01;;;;;;;17.37;12.03;;;1.10;99.90;;;;;;4953411;28;20380;-75
2022/04/02 02:45:27;;;;;;;16.37;11.43;;;1.10;99.90;;;;;;4953459;28;20412;-74
2022/04/02 02:47:53;;;;;;;12.57;11.17;;;1.10;99.90;;;;;;4951970;29;20418;-74
2022/04/02 02:50:19;;;;;;;14.60;10.40;;;1.10;99.90;;;;;;4953261;29;20486;-75
2022/04/02 02:52:45;;;;;;;15.90;11.57;;;1.10;99.90;;;;;;4953112;28;20214;-75
2022/04/02 02:55:10;;;;;;;19.17;10.50;;;1.10;99.90;;;;;;4953217;28;20462;-75
2022/04/02 02:57:40;;;;;;;11.60;9.40;;;1.10;99.90;;;;;;4955926;28;20177;-75
2022/04/02 03:00:07;;;;;;;16.40;11.17;;;1.10;99.90;;;;;;4957576;28;20165;-74
2022/04/02 03:02:33;;;;;;;13.83;10.70;;;1.10;99.90;;;;;;4953049;28;20432;-74
2022/04/02 03:04:59;;;;;;;13.23;10.80;;;1.10;99.90;;;;;;4953395;28;20822;-75
2022/04/02 03:07:25;;;;;;;12.17;9.47;;;1.10;99.90;;;;;;4953001;29;20391;-75
2022/04/02 03:09:51;;;;;;;14.97;10.47;;;1.00;99.90;;;;;;4953358;28;20579;-74
2022/04/02 03:12:16;;;;;;;14.70;10.67;;;1.00;99.90;;;;;;4952583;28;20459;-74
2022/04/02 03:14:42;;;;;;;12.80;10.87;;;1.00;99.90;;;;;;4954860;28;20209;-74
2022/04/02 03:17:09;;;;;;;11.17;9.23;;;1.00;99.90;;;;;;4956579;28;20208;-74
2022/04/02 03:19:35;;;;;;;14.47;10.07;;;1.00;99.90;;;;;;4956990;28;20175;-74
2022/04/02 03:22:00;;;;;;;15.30;9.60;;;1.00;99.90;;;;;;4956492;28;20944;-74
2022/04/02 03:24:26;;;;;;;11.90;10.33;;;1.00;99.90;;;;;;4956936;28;20294;-74
2022/04/02 03:26:52;;;;;;;13.83;8.70;;;1.00;99.90;;;;;;4956848;28;20192;-74
2022/04/02 03:29:17;;;;;;;16.20;11.40;;;1.00;99.90;;;;;;4956528;29;20185;-74
2022/04/02 03:31:44;;;;;;;13.13;10.27;;;1.00;99.90;;;;;;4956404;28;20221;-74
2022/04/02 03:34:09;;;;;;;11.63;9.67;;;0.90;99.90;;;;;;4956439;28;20183;-76
2022/04/02 03:36:35;;;;;;;15.73;9.47;;;0.90;99.90;;;;;;4956679;28;20494;-74
2022/04/02 03:39:00;;;;;;;11.47;8.97;;;0.90;99.90;;;;;;4956351;29;20650;-75
2022/04/02 03:41:26;;;;;;;14.00;8.20;;;0.90;99.90;;;;;;4956286;28;20617;-74
2022/04/02 03:43:53;;;;;;;12.73;8.80;;;0.80;99.90;;;;;;4956349;28;20744;-74
2022/04/02 03:49:21;;;;;;;11.67;8.63;;;0.70;99.90;;;;;;4953932;29;20441;-74
2022/04/02 03:51:46;;;;;;;15.03;7.83;;;0.70;99.90;;;;;;4950804;28;20992;-75
2022/04/02 03:54:12;;;;;;;12.70;8.90;;;0.70;99.90;;;;;;4956218;29;20400;-74
2022/04/02 03:56:37;;;;;;;17.70;9.40;;;0.70;99.90;;;;;;4956430;28;20209;-74
2022/04/02 03:59:03;;;;;;;14.17;8.10;;;0.70;99.90;;;;;;4956025;29;20256;-75
2022/04/02 04:01:28;;;;;;;17.70;7.80;;;0.70;99.90;;;;;;4956080;28;20188;-74
2022/04/02 04:03:54;;;;;;;8.27;6.67;;;0.70;99.90;;;;;;4956050;29;20192;-74
2022/04/02 04:06:19;;;;;;;13.33;7.70;;;0.60;99.90;;;;;;4956053;28;20189;-76
2022/04/02 04:08:45;;;;;;;15.37;8.30;;;0.70;99.90;;;;;;4956089;29;20180;-74
2022/04/02 04:11:14;;;;;;;15.50;8.10;;;0.70;99.90;;;;;;4956267;28;20197;-74
2022/04/02 04:13:39;;;;;;;9.90;7.50;;;0.70;99.90;;;;;;4956119;28;20526;-74
2022/04/02 04:16:07;;;;;;;17.10;9.43;;;0.70;99.90;;;;;;4955825;28;20929;-74
2022/04/02 04:18:34;;;;;;;18.00;10.37;;;0.70;99.90;;;;;;4955843;28;20455;-74
2022/04/02 04:21:00;;;;;;;16.60;9.80;;;0.70;99.90;;;;;;4955457;28;20421;-74
2022/04/02 04:23:26;;;;;;;16.87;10.33;;;0.70;99.90;;;;;;4955825;29;20887;-74
2022/04/02 04:25:51;;;;;;;13.90;10.87;;;0.80;99.90;;;;;;4954971;28;20170;-74
2022/04/02 04:28:17;;;;;;;14.57;11.60;;;0.80;99.90;;;;;;4955572;29;20402;-75
2022/04/02 04:30:43;;;;;;;15.03;11.00;;;0.80;99.90;;;;;;4955440;28;20177;-74
2022/04/02 04:33:09;;;;;;;11.10;9.40;;;0.80;99.90;;;;;;4955649;28;20263;-74
2022/04/02 04:35:34;;;;;;;16.40;10.53;;;0.80;99.90;;;;;;4955668;28;20212;-74
2022/04/02 04:38:00;;;;;;;13.50;9.70;;;0.70;99.90;;;;;;4955523;28;20428;-74
2022/04/02 04:40:25;;;;;;;16.27;9.53;;;0.80;99.90;;;;;;4955525;29;20228;-73
2022/04/02 04:42:51;;;;;;;13.90;10.03;;;0.70;99.90;;;;;;4955343;28;20564;-74
2022/04/02 04:45:17;;;;;;;12.40;10.30;;;0.70;99.90;;;;;;4955956;28;20232;-74
2022/04/02 04:47:46;;;;;;;14.20;11.07;;;0.60;99.90;;;;;;4955579;29;20183;-75
2022/04/02 04:50:12;;;;;;;13.57;10.87;;;0.70;99.90;;;;;;4955616;28;20181;-74
2022/04/02 04:52:38;;;;;;;13.57;10.20;;;0.60;99.90;;;;;;4955828;28;20471;-74
2022/04/02 04:55:04;;;;;;;17.60;11.07;;;0.60;99.90;;;;;;4961069;28;20413;-75
2022/04/02 04:57:30;;;;;;;22.60;11.20;;;0.60;99.90;;;;;;4957294;28;20578;-74
2022/04/02 04:59:56;;;;;;;15.77;10.63;;;0.60;99.90;;;;;;4955332;28;20424;-75
2022/04/02 05:02:22;;;;;;;15.27;11.47;;;0.60;99.90;;;;;;4954673;28;20247;-74
2022/04/02 05:04:48;;;;;;;13.83;10.40;;;0.60;99.90;;;;;;4953977;29;20529;-74
2022/04/02 05:07:14;;;;;;;16.57;12.00;;;0.60;99.90;;;;;;4954834;28;20504;-74
2022/04/02 05:09:42;;;;;;;12.00;9.50;;;0.70;99.90;;;;;;4955044;28;20177;-75
2022/04/02 05:12:08;;;;;;;17.97;12.57;;;0.70;99.90;;;;;;4954985;28;20188;-73
2022/04/02 05:14:35;;;;;;;15.33;10.80;;;0.70;99.90;;;;;;4956291;28;20387;-74
2022/04/02 05:17:00;;;;;;;17.10;11.23;;;0.70;99.90;;;;;;4955683;28;20437;-74
2022/04/02 05:19:26;;;;;;;13.97;9.40;;;0.70;99.90;;;;;;4955119;28;20417;-74
2022/04/02 05:21:52;;;;;;;13.57;10.17;;;0.70;99.90;;;;;;4954560;28;20623;-73
2022/04/02 05:24:17;;;;;;;10.50;8.97;;;0.70;99.90;;;;;;4954461;29;20183;-73
2022/04/02 05:26:47;;;;;;;11.83;9.30;;;0.70;99.90;;;;;;4954724;29;20223;-74
2022/04/02 05:29:13;;;;;;;11.17;9.80;;;0.70;99.90;;;;;;4954304;28;20202;-74
2022/04/02 05:31:40;;;;;;;13.00;10.60;;;0.60;99.90;;;;;;4954206;28;20538;-74
2022/04/02 05:34:06;;;;;;;11.27;10.07;;;0.60;99.90;;;;;;4954258;28;20423;-74
2022/04/02 05:36:32;;;;;;;13.70;9.47;;;0.60;99.90;;;;;;4954390;28;20466;-74
2022/04/02 05:38:58;;;;;;;16.93;10.10;;;0.60;99.90;;;;;;4954171;28;20177;-74
2022/04/02 05:41:24;;;;;;;10.37;9.37;;;0.60;99.90;;;;;;4954197;28;20992;-75
2022/04/02 05:43:50;;;;;;;12.60;10.83;;;0.70;99.90;;;;;;4954490;28;20177;-74
2022/04/02 05:46:16;;;;;;;12.17;9.83;;;0.70;99.90;;;;;;4954031;29;20182;-74
2022/04/02 05:48:42;;;;;;;10.80;8.97;;;0.80;99.90;;;;;;4954281;28;20181;-74
2022/04/02 05:51:08;;;;;;;11.20;9.43;;;0.70;99.90;;;;;;4953718;28;20507;-74
2022/04/02 05:53:34;;;;;;;10.17;8.90;;;0.80;99.90;;;;;;4954127;28;20423;-74
2022/04/02 05:56:01;;;;;;;11.33;8.90;;;0.80;99.90;;;;;;4954156;28;20452;-74
2022/04/02 05:58:27;;;;;;;15.60;7.30;;;0.80;99.90;;;;;;4954225;28;20173;-75
2022/04/02 06:00:53;;;;;;;12.00;8.37;;;0.80;99.90;;;;;;4953637;28;20418;-75
2022/04/02 06:03:20;;;;;;;9.47;8.33;;;0.90;99.90;;;;;;4953989;28;20421;-75
2022/04/02 06:05:49;;;;;;;10.70;9.50;;;0.90;99.90;;;;;;4954220;28;20406;-76
2022/04/02 06:08:18;;;;;;;12.43;8.90;;;0.90;99.90;;;;;;4953154;29;20452;-76
2022/04/02 06:10:44;;;;;;;9.60;8.00;;;0.80;99.90;;;;;;4954370;28;20425;-77
2022/04/02 06:13:10;;;;;;;11.07;8.80;;;0.90;99.90;;;;;;4954280;29;20964;-76
2022/04/02 06:15:36;;;;;;;12.03;8.83;;;1.00;99.90;;;;;;4954146;28;20453;-76
2022/04/02 06:18:01;;;;;;;12.03;9.60;;;0.90;99.90;;;;;;4954199;29;20174;-76
2022/04/02 06:20:27;;;;;;;10.67;8.53;;;0.90;99.90;;;;;;4954067;29;20181;-75
2022/04/02 06:22:53;;;;;;;10.73;7.97;;;1.00;99.90;;;;;;4953875;28;20583;-76
2022/04/02 06:25:19;;;;;;;9.17;8.07;;;0.90;99.90;;;;;;4953919;28;20177;-76
2022/04/02 06:27:46;;;;;;;9.07;7.60;;;1.00;99.90;;;;;;4952020;29;20520;-75
2022/04/02 06:30:15;;;;;;;9.43;7.20;;;1.00;99.90;;;;;;4945265;28;20193;-76
2022/04/02 06:32:41;;;;;;;9.03;8.07;;;1.10;99.90;;;;;;4939403;28;20515;-76
2022/04/02 06:35:07;;;;;;;8.03;6.90;;;1.20;99.90;;;;;;4949110;29;20422;-75
2022/04/02 06:37:34;;;;;;;7.87;7.07;;;1.10;99.90;;;;;;4949555;29;20430;-75
2022/04/02 06:40:00;;;;;;;6.87;6.17;;;1.20;99.90;;;;;;4951545;28;20495;-75
2022/04/02 06:42:25;;;;;;;8.60;7.67;;;1.20;99.90;;;;;;4953037;28;20438;-75
2022/04/02 06:44:51;;;;;;;10.03;7.67;;;1.30;99.90;;;;;;4953228;28;21032;-75
2022/04/02 06:47:16;;;;;;;7.87;7.07;;;1.40;99.90;;;;;;4953614;29;20182;-76
2022/04/02 06:49:42;;;;;;;9.87;6.53;;;1.40;99.90;;;;;;4954148;29;20182;-76
2022/04/02 06:52:08;;;;;;;7.10;6.40;;;1.30;99.90;;;;;;4963938;29;20488;-76
2022/04/02 06:54:33;;;;;;;9.73;8.10;;;1.40;99.90;;;;;;4957307;29;20190;-75
2022/04/02 06:56:59;;;;;;;8.07;6.70;;;1.40;99.90;;;;;;4953920;29;20286;-75
2022/04/02 06:59:25;;;;;;;7.63;6.70;;;1.40;99.90;;;;;;4952735;28;20174;-76
2022/04/02 07:01:51;;;;;;;9.47;7.27;;;1.50;99.90;;;;;;4952928;29;20938;-77
2022/04/02 07:04:17;;;;;;;7.37;6.20;;;1.50;99.90;;;;;;4953117;29;20965;-76
2022/04/02 07:06:44;;;;;;;8.87;6.90;;;1.40;99.90;;;;;;4953557;29;20550;-75
2022/04/02 07:09:10;;;;;;;7.00;5.90;;;1.40;99.90;;;;;;4953381;28;20206;-76
2022/04/02 07:11:36;;;;;;;7.23;6.27;;;1.40;99.90;;;;;;4953751;28;20414;-75
2022/04/02 07:14:02;;;;;;;8.93;7.20;;;1.40;99.90;;;;;;4953198;29;20427;-75
2022/04/02 07:16:28;;;;;;;9.00;7.20;;;1.40;99.90;;;;;;4953152;28;20270;-75
2022/04/02 07:18:55;;;;;;;6.90;6.10;;;1.40;99.90;;;;;;4953152;29;20237;-76
2022/04/02 07:21:25;;;;;;;7.67;6.70;;;1.50;99.90;;;;;;4952695;28;20469;-76
2022/04/02 07:23:51;;;;;;;8.40;7.60;;;1.50;99.90;;;;;;4953137;28;20427;-76
2022/04/02 07:26:18;;;;;;;8.33;6.80;;;1.50;99.90;;;;;;4952917;28;20466;-76
2022/04/02 07:28:45;;;;;;;6.97;6.37;;;1.50;99.90;;;;;;4953008;29;20476;-75
2022/04/02 07:31:10;;;;;;;9.33;7.30;;;1.50;99.90;;;;;;4952534;28;20983;-77
2022/04/02 07:33:36;;;;;;;7.70;6.47;;;1.40;99.90;;;;;;4953076;29;20421;-76
2022/04/02 07:36:09;;;;;;;7.00;6.37;;;1.30;99.90;;;;;;4952720;29;20229;-76
2022/04/02 07:38:46;;;;;;;9.20;7.40;;;1.20;99.90;;;;;;4952951;28;20591;-76
2022/04/02 07:41:26;;;;;;;7.60;6.67;;;1.30;99.90;;;;;;4951698;28;21038;-76
2022/04/02 07:44:02;;;;;;;10.43;8.20;;;1.30;99.90;;;;;;4952748;28;20936;-76
2022/04/02 07:46:33;;;;;;;9.07;7.23;;;1.30;99.90;;;;;;4952361;28;20458;-77
2022/04/02 07:49:01;;;;;;;8.23;6.63;;;1.40;99.90;;;;;;4951752;28;20413;-77
2022/04/02 07:51:30;;;;;;;11.20;7.30;;;1.40;99.90;;;;;;4951655;28;20931;-76
2022/04/02 07:54:00;;;;;;;8.70;6.73;;;1.50;99.90;;;;;;4952252;28;20792;-76
2022/04/02 07:56:43;;;;;;;8.10;7.20;;;1.60;99.90;;;;;;4952202;28;20507;-76
2022/04/02 07:59:42;;;;;;;8.57;6.90;;;1.70;99.90;;;;;;4952327;28;21028;-75
2022/04/02 08:02:36;;;;;;;8.03;7.20;;;1.70;99.90;;;;;;4952659;28;20542;-76
2022/04/02 08:05:00;;;;;;;8.17;6.77;;;1.70;99.90;;;;;;4956090;29;21001;-76
2022/04/02 08:07:30;;;;;;;7.57;6.87;;;1.80;99.90;;;;;;4954531;28;20429;-75
2022/04/02 08:09:57;;;;;;;7.17;6.47;;;1.70;99.90;;;;;;4941718;28;20464;-75
2022/04/02 08:12:23;;;;;;;9.17;6.37;;;1.60;99.90;;;;;;4947777;28;20511;-76
2022/04/02 08:14:50;;;;;;;7.07;6.20;;;1.50;99.90;;;;;;4969429;28;20663;-75
2022/04/02 08:17:16;;;;;;;6.30;5.40;;;1.50;99.90;;;;;;4948880;28;20459;-76
2022/04/02 08:19:42;;;;;;;9.30;5.83;;;1.50;99.90;;;;;;4957295;28;20426;-75
2022/04/02 08:22:07;;;;;;;10.70;7.03;;;1.50;99.90;;;;;;4971913;28;20197;-75
2022/04/02 08:24:33;;;;;;;10.33;6.30;;;1.50;99.90;;;;;;4975113;28;20199;-75
2022/04/02 08:27:06;;;;;;;7.97;6.43;;;1.60;99.90;;;;;;4975054;28;20194;-76
2022/04/02 08:30:07;;;;;;;6.73;6.03;;;1.60;99.90;;;;;;4975029;28;20182;-74
2022/04/02 08:33:15;;;;;;;8.90;6.30;;;1.60;99.90;;;;;;4974589;28;20894;-74
2022/04/02 08:36:02;;;;;;;9.47;7.67;;;1.70;99.90;;;;;;4947122;28;20458;-72
2022/04/02 08:38:50;;;;;;;8.90;6.90;;;1.70;99.90;;;;;;4954287;28;20531;-75
2022/04/02 08:41:36;;;;;;;11.97;7.17;;;1.60;99.90;;;;;;4953118;28;20495;-73
2022/04/02 08:44:04;;;;;;;9.23;7.43;;;1.50;99.90;;;;;;4955303;29;20414;-74
2022/04/02 08:46:35;;;;;;;7.83;6.90;;;1.50;99.90;;;;;;4955592;29;20400;-74
2022/04/02 08:49:35;;;;;;;9.30;8.33;;;1.60;99.90;;;;;;4957134;28;20434;-75
2022/04/02 08:52:13;;;;;;;12.93;7.47;;;1.70;99.90;;;;;;4953474;29;20838;-75
2022/04/02 08:54:45;;;;;;;6.80;6.17;;;1.50;99.90;;;;;;4955451;29;20903;-75
2022/04/02 08:57:24;;;;;;;7.63;6.83;;;1.50;99.90;;;;;;4955252;28;20453;-74
2022/04/02 09:00:06;;;;;;;11.13;7.47;;;1.50;99.90;;;;;;4946993;29;20508;-75
2022/04/02 09:02:53;;;;;;;13.33;9.00;;;1.60;99.90;;;;;;4954087;28;20580;-75
2022/04/02 09:05:48;;;;;;;9.60;8.50;;;1.80;99.90;;;;;;4935861;29;20393;-75
2022/04/02 09:08:32;;;;;;;8.33;7.50;;;1.80;99.90;;;;;;4935935;29;20398;-74
2022/04/02 09:11:16;;;;;;;10.43;8.40;;;1.80;99.90;;;;;;4940224;29;20955;-75
2022/04/02 09:13:59;;;;;;;9.30;7.87;;;1.80;99.90;;;;;;4949013;29;20513;-75
2022/04/02 09:16:52;;;;;;;9.33;7.90;;;1.90;99.90;;;;;;4949060;28;20482;-75
2022/04/02 09:19:37;;;;;;;12.57;8.13;;;1.70;99.90;;;;;;4935603;29;20460;-76
2022/04/02 09:22:14;;;;;;;9.83;8.43;;;1.60;99.90;;;;;;4940975;28;20414;-76
2022/04/02 09:25:06;;;;;;;10.03;9.00;;;1.70;99.90;;;;;;4974174;28;20483;-75
2022/04/02 09:27:43;;;;;;;12.27;8.03;;;1.80;99.90;;;;;;4973814;28;20394;-75
2022/04/02 09:30:45;;;;;;;7.83;7.13;;;1.70;99.90;;;;;;4973900;28;20781;-75
2022/04/02 09:33:26;;;;;;;8.90;7.10;;;1.70;99.90;;;;;;4973705;28;20418;-74
2022/04/02 09:35:57;;;;;;;9.60;8.20;;;1.60;99.90;;;;;;4972767;28;20434;-74
2022/04/02 09:38:43;;;;;;;11.30;7.87;;;1.50;99.90;;;;;;4973370;28;20749;-75
2022/04/02 09:41:27;;;;;;;10.67;8.47;;;1.30;99.90;;;;;;4971607;28;20435;-74
2022/04/02 09:43:59;;;;;;;9.30;8.20;;;1.30;99.90;;;;;;4972095;28;20389;-75
2022/04/02 09:46:52;;;;;;;9.80;8.30;;;1.30;99.90;;;;;;4952263;29;20463;-75
2022/04/02 09:49:27;;;;;;;10.83;9.13;;;1.40;99.90;;;;;;4930787;29;20454;-73
2022/04/02 09:52:07;;;;;;;12.77;8.77;;;1.30;99.90;;;;;;4934876;29;20833;-75
2022/04/02 09:54:46;;;;;;;11.30;7.87;;;1.30;99.90;;;;;;4934938;29;20452;-75
2022/04/02 09:57:37;;;;;;;10.73;8.47;;;1.20;99.90;;;;;;4941716;29;20471;-76
2022/04/02 10:00:06;;;;;;;11.13;9.00;;;1.30;99.90;;;;;;4948335;29;20414;-77
2022/04/02 10:03:04;;;;;;;10.20;7.90;;;1.30;99.90;;;;;;4945093;29;20448;-79
2022/04/02 10:05:44;;;;;;;8.80;7.90;;;1.40;99.90;;;;;;4944744;28;20448;-76
2022/04/02 10:08:39;;;;;;;12.37;9.00;;;1.40;99.90;;;;;;4942176;28;20467;-75
2022/04/02 10:11:06;;;;;;;12.63;9.40;;;1.50;99.90;;;;;;4948161;28;20788;-74
2022/04/02 10:13:34;;;;;;;9.80;8.80;;;1.60;99.90;;;;;;4953786;28;20477;-76
2022/04/02 10:15:59;;;;;;;9.10;8.03;;;1.60;99.90;;;;;;4953572;28;20461;-75
2022/04/02 10:18:26;;;;;;;10.10;9.10;;;1.50;99.90;;;;;;4945506;29;20426;-74
2022/04/02 10:20:53;;;;;;;9.30;7.43;;;1.40;99.90;;;;;;4952702;29;20173;-75
2022/04/02 10:23:29;;;;;;;13.67;8.93;;;1.50;99.90;;;;;;4952040;28;20844;-76
2022/04/02 10:26:07;;;;;;;12.60;9.37;;;1.70;99.90;;;;;;4953443;28;20478;-75
2022/04/02 10:28:43;;;;;;;11.60;8.00;;;1.90;99.90;;;;;;4952486;29;20750;-75
2022/04/02 10:31:23;;;;;;;9.10;8.20;;;2.00;99.90;;;;;;4953145;28;20919;-75
2022/04/02 10:33:52;;;;;;;11.53;8.37;;;2.00;99.90;;;;;;4953627;28;20417;-74
2022/04/02 10:36:19;;;;;;;12.07;8.57;;;1.90;99.90;;;;;;4952165;28;20460;-74
2022/04/02 10:38:48;;;;;;;11.67;8.37;;;1.90;99.90;;;;;;4953650;28;20409;-75
2022/04/02 10:41:19;;;;;;;8.97;7.93;;;1.80;99.90;;;;;;4953168;28;20430;-75
2022/04/02 10:43:51;;;;;;;13.37;9.30;;;1.80;99.90;;;;;;4953838;28;20449;-75
2022/04/02 10:46:21;;;;;;;10.87;8.67;;;1.70;99.90;;;;;;4954587;28;20392;-74
2022/04/02 10:48:59;;;;;;;13.73;9.67;;;1.70;99.90;;;;;;4954991;28;20418;-75
2022/04/02 10:51:27;;;;;;;10.60;8.30;;;1.70;99.90;;;;;;4943900;28;20453;-75
2022/04/02 10:54:22;;;;;;;7.87;7.13;;;1.80;99.90;;;;;;4944999;28;20413;-75
2022/04/02 10:56:48;;;;;;;9.47;8.30;;;1.80;99.90;;;;;;4940537;29;20783;-75
2022/04/02 10:59:16;;;;;;;9.53;8.43;;;1.70;99.90;;;;;;4936614;29;20489;-75
2022/04/02 11:01:43;;;;;;;12.17;8.80;;;1.90;99.90;;;;;;4953009;28;20199;-75
2022/04/02 11:04:40;;;;;;;11.30;7.30;;;1.90;99.90;;;;;;4953282;28;20383;-75
2022/04/02 11:07:06;;;;;;;9.53;8.23;;;2.00;99.90;;;;;;4953173;29;20505;-75
2022/04/02 11:09:41;;;;;;;15.97;8.43;;;2.20;99.90;;;;;;4953427;28;20481;-76
2022/04/02 11:12:14;;;;;;;9.80;7.83;;;2.20;99.90;;;;;;4952742;28;20205;-75
2022/04/02 11:14:49;;;;;;;9.90;8.63;;;2.20;99.90;;;;;;4953318;28;20446;-75
2022/04/02 11:17:32;;;;;;;13.50;8.77;;;2.00;99.90;;;;;;4952933;28;20850;-75
2022/04/02 11:20:07;;;;;;;11.77;8.07;;;2.00;99.90;;;;;;4953176;28;20408;-76
2022/04/02 11:22:45;;;;;;;10.50;8.13;;;1.90;99.90;;;;;;4952807;28;20432;-76
2022/04/02 11:25:17;;;;;;;9.57;7.53;;;1.80;99.90;;;;;;4953043;29;20410;-76
2022/04/02 11:27:48;;;;;;;10.83;8.60;;;1.80;99.90;;;;;;4952936;29;20430;-76
2022/04/02 11:30:17;;;;;;;9.30;8.00;;;1.90;99.90;;;;;;4953085;28;20406;-76
2022/04/02 11:32:45;;;;;;;11.30;10.10;;;1.80;99.90;;;;;;4951661;28;20436;-75
2022/04/02 11:35:24;;;;;;;11.00;9.17;;;1.80;99.90;;;;;;4952291;28;20427;-76
2022/04/02 11:37:55;;;;;;;14.70;8.40;;;1.80;99.90;;;;;;4956615;29;20454;-76
2022/04/02 11:40:25;;;;;;;11.30;9.10;;;1.80;99.90;;;;;;4936876;29;20462;-75
2022/04/02 11:42:51;;;;;;;12.60;10.17;;;1.80;99.90;;;;;;4955011;28;20417;-75
2022/04/02 11:45:20;;;;;;;11.20;10.10;;;1.90;99.90;;;;;;4956598;28;20430;-75
2022/04/02 11:47:50;;;;;;;11.40;8.93;;;1.90;99.90;;;;;;4957285;29;20214;-75
2022/04/02 11:50:27;;;;;;;13.33;8.77;;;1.80;99.90;;;;;;4957431;28;21093;-75
2022/04/02 11:52:58;;;;;;;11.33;8.97;;;1.70;99.90;;;;;;4956605;28;20428;-74
2022/04/02 11:55:25;;;;;;;11.33;8.43;;;1.70;99.90;;;;;;4956470;28;20425;-74
2022/04/02 11:57:57;;;;;;;17.80;9.40;;;1.60;99.90;;;;;;4957452;28;20392;-74
2022/04/02 12:00:26;;;;;;;10.70;9.50;;;1.60;99.90;;;;;;4953643;28;20492;-73
2022/04/02 12:02:52;;;;;;;11.00;9.43;;;1.70;99.90;;;;;;4956839;28;20512;-74
2022/04/02 12:05:17;;;;;;;11.70;9.90;;;1.50;99.90;;;;;;4956439;28;20395;-74
2022/04/02 12:07:48;;;;;;;12.33;9.30;;;1.60;99.90;;;;;;4956350;29;20465;-73
2022/04/02 12:10:20;;;;;;;14.00;10.47;;;1.60;99.90;;;;;;4956430;28;20185;-75
2022/04/02 12:12:48;;;;;;;13.70;10.27;;;1.60;99.90;;;;;;4955983;28;20407;-75
2022/04/02 12:15:15;;;;;;;11.90;9.40;;;1.60;99.90;;;;;;4956040;28;20425;-74
2022/04/02 12:17:47;;;;;;;17.23;10.20;;;1.50;99.90;;;;;;4956196;28;20457;-75
2022/04/02 12:20:25;;;;;;;18.70;11.80;;;1.50;99.90;;;;;;4955971;29;20393;-74
2022/04/02 12:23:22;;;;;;;11.23;10.03;;;1.50;99.90;;;;;;4955754;28;20496;-75
2022/04/02 12:25:59;;;;;;;14.67;10.73;;;1.50;99.90;;;;;;4956045;28;20483;-75
2022/04/02 12:28:25;;;;;;;13.03;10.40;;;1.50;99.90;;;;;;4955846;28;20396;-75
2022/04/02 12:30:53;;;;;;;11.90;10.67;;;1.50;99.90;;;;;;4955503;28;20977;-75
2022/04/02 12:33:21;;;;;;;14.10;11.30;;;1.50;99.90;;;;;;4955591;28;20430;-74
2022/04/02 12:35:56;;;;;;;13.47;10.80;;;1.60;99.90;;;;;;4955655;28;20430;-75
2022/04/02 12:38:31;;;;;;;15.37;11.13;;;1.50;99.90;;;;;;4955658;28;20404;-74
2022/04/02 12:40:58;;;;;;;18.33;12.30;;;1.30;99.90;;;;;;4955387;28;20405;-73
2022/04/02 12:43:27;;;;;;;16.10;11.17;;;1.40;99.90;;;;;;4957842;28;20417;-74
2022/04/02 12:45:52;;;;;;;13.17;10.70;;;1.30;99.90;;;;;;4959644;28;20395;-74
2022/04/02 12:48:18;;;;;;;16.30;10.70;;;1.20;99.90;;;;;;4954163;28;20507;-75
2022/04/02 12:50:55;;;;;;;12.40;10.67;;;1.30;99.90;;;;;;4953708;29;20165;-75
2022/04/02 12:53:36;;;;;;;12.27;10.03;;;1.30;99.90;;;;;;4954161;28;20201;-74
2022/04/02 12:56:07;;;;;;;11.33;9.30;;;1.40;99.90;;;;;;4955088;28;20846;-75
2022/04/02 12:58:40;;;;;;;13.17;10.70;;;1.40;99.90;;;;;;4954915;28;20421;-75
2022/04/02 13:01:27;;;;;;;15.63;12.37;;;1.50;99.90;;;;;;4954731;28;20437;-75
2022/04/02 13:04:04;;;;;;;14.00;10.60;;;1.70;99.90;;;;;;4955357;28;20426;-75
2022/04/02 13:06:32;;;;;;;13.60;10.03;;;1.80;99.90;;;;;;4955267;28;20487;-75
2022/04/02 13:09:05;;;;;;;12.77;9.57;;;1.80;99.90;;;;;;4955186;28;20501;-74
2022/04/02 13:11:53;;;;;;;15.43;10.90;;;1.80;99.90;;;;;;4954807;28;20411;-75
2022/04/02 13:14:29;;;;;;;17.37;8.83;;;1.70;99.90;;;;;;4954829;29;20404;-75
2022/04/02 13:17:14;;;;;;;11.33;9.07;;;1.70;99.90;;;;;;4954770;28;20466;-75
2022/04/02 13:22:54;;;;;;;9.77;8.77;;;1.90;99.90;;;;;;4954760;29;20432;-75
2022/04/02 13:25:26;;;;;;;13.30;9.87;;;1.90;99.90;;;;;;4954688;28;20432;-75
2022/04/02 13:28:17;;;;;;;12.40;10.10;;;1.90;99.90;;;;;;4954884;28;20988;-75
2022/04/02 13:30:55;;;;;;;12.63;9.77;;;2.00;99.90;;;;;;4954296;28;20417;-74
2022/04/02 13:33:42;;;;;;;11.93;10.20;;;2.10;99.90;;;;;;4954708;28;20422;-75
2022/04/02 13:36:26;;;;;;;13.33;10.17;;;2.10;99.90;;;;;;4954147;29;20456;-75
2022/04/02 13:38:58;;;;;;;13.97;10.53;;;2.00;99.90;;;;;;4954656;28;20423;-75
2022/04/02 13:41:24;;;;;;;18.37;11.73;;;1.90;99.90;;;;;;4954014;28;20464;-75
2022/04/02 13:43:58;;;;;;;10.53;9.17;;;1.90;99.90;;;;;;4954460;29;20458;-74
2022/04/02 13:46:34;;;;;;;12.27;10.30;;;1.80;99.90;;;;;;4954405;28;20177;-74
2022/04/02 13:49:04;;;;;;;11.03;8.80;;;1.70;99.90;;;;;;4954349;28;20507;-75
2022/04/02 13:51:43;;;;;;;12.00;9.23;;;1.80;99.90;;;;;;4954158;28;20448;-74
2022/04/02 13:54:37;;;;;;;12.13;10.20;;;1.80;99.90;;;;;;4954245;28;20428;-74
2022/04/02 13:57:06;;;;;;;12.00;9.47;;;2.00;99.90;;;;;;4954124;28;20476;-75
2022/04/02 13:59:36;;;;;;;12.23;9.60;;;2.00;99.90;;;;;;4953376;28;20442;-75
2022/04/02 14:02:04;;;;;;;11.30;9.50;;;2.00;99.90;;;;;;4953728;28;20487;-74
2022/04/02 14:04:31;;;;;;;21.30;10.93;;;2.00;99.90;;;;;;4953922;28;20419;-74
2022/04/02 14:07:01;;;;;;;11.50;9.77;;;2.00;99.90;;;;;;4953809;28;20498;-75
2022/04/02 14:09:29;;;;;;;14.87;10.83;;;2.10;99.90;;;;;;4953427;28;20412;-73
2022/04/02 14:12:11;;;;;;;14.07;11.53;;;2.10;99.90;;;;;;4942134;28;20457;-74
2022/04/02 14:14:36;;;;;;;16.63;11.03;;;2.20;99.90;;;;;;4953792;28;20397;-74
2022/04/02 14:17:05;;;;;;;19.27;13.60;;;2.20;99.90;;;;;;4953585;28;20466;-74
2022/04/02 14:19:42;;;;;;;16.83;10.87;;;2.20;99.90;;;;;;4953495;28;20180;-75
2022/04/02 14:22:09;;;;;;;15.40;10.30;;;2.20;99.90;;;;;;4953405;28;20515;-75
2022/04/02 14:24:53;;;;;;;15.80;12.00;;;2.00;99.90;;;;;;4953671;28;20413;-74
2022/04/02 14:27:50;;;;;;;19.07;12.10;;;1.90;99.90;;;;;;4953443;28;20413;-74
2022/04/02 14:30:56;;;;;;;16.00;12.37;;;1.90;99.90;;;;;;4953372;28;20416;-74
2022/04/02 14:33:49;;;;;;;16.50;11.77;;;1.90;99.90;;;;;;4961257;28;20407;-75
2022/04/02 14:36:48;;;;;;;17.13;13.50;;;2.00;99.90;;;;;;4944460;28;20442;-73
2022/04/02 14:39:31;;;;;;;14.77;12.60;;;1.90;99.90;;;;;;4930325;28;20468;-74
2022/04/02 14:42:06;;;;;;;16.13;12.33;;;1.80;99.90;;;;;;4945329;29;20419;-73
2022/04/02 14:44:40;;;;;;;16.67;12.57;;;1.80;99.90;;;;;;4947306;28;20503;-73
2022/04/02 14:47:43;;;;;;;17.87;12.67;;;1.70;99.90;;;;;;4944516;28;20795;-73
2022/04/02 14:50:12;;;;;;;14.50;11.80;;;1.70;99.90;;;;;;4944796;28;20541;-74